Spottswood, Virginia
Current Conditions -  °F | °C
As of 7:55 PM on Tuesday 21 Oct 2014 (Local Time) from KW13 Reporting Station
Overcast Overcast  
Wind Chill: 52°   Ceiling: 3800
Heat Index: 52°   Visibility: 10mi
Dew Point: 46°   Wind: 5mph
Humidity: 80%   Direction: 350°N
Pressure: 29.9"   Gusts: NA
Location:  37.95°N, 79.21°W
Report Text: KW13 212355Z AUTO 35004KT 10SM OVC038 11/08 A2990 RMK AO1 T01110078 10185 20111
Loading
Personal Weather Stations






























Interactive Weather Map
Tropical Storm Tracking
New forecast layout! Learn more

10-Day Weather Forecast

Advertisements
Track Severe Weather on mobile